sensor_id;sensor_type;location;lat;lon;timestamp;P1;durP1;ratioP1;P2;durP2;ratioP2
11677;SDS011;5895;41.950;24.372;2022-11-20T00:01:15;3.03;;;1.95;;
11677;SDS011;5895;41.950;24.372;2022-11-20T00:03:44;3.25;;;1.67;;
11677;SDS011;5895;41.950;24.372;2022-11-20T00:06:13;4.25;;;1.83;;
11677;SDS011;5895;41.950;24.372;2022-11-20T00:08:41;4.88;;;2.33;;
11677;SDS011;5895;41.950;24.372;2022-11-20T00:11:09;3.28;;;1.75;;
11677;SDS011;5895;41.950;24.372;2022-11-20T00:13:40;4.20;;;1.67;;
11677;SDS011;5895;41.950;24.372;2022-11-20T00:16:08;5.43;;;2.00;;
11677;SDS011;5895;41.950;24.372;2022-11-20T00:18:36;5.78;;;1.83;;
11677;SDS011;5895;41.950;24.372;2022-11-20T00:21:05;1.95;;;1.42;;
11677;SDS011;5895;41.950;24.372;2022-11-20T00:23:34;4.97;;;1.70;;
11677;SDS011;5895;41.950;24.372;2022-11-20T00:26:02;5.88;;;1.80;;
11677;SDS011;5895;41.950;24.372;2022-11-20T00:28:30;4.45;;;1.77;;
11677;SDS011;5895;41.950;24.372;2022-11-20T00:31:03;3.75;;;1.60;;
11677;SDS011;5895;41.950;24.372;2022-11-20T00:33:32;3.90;;;1.75;;
11677;SDS011;5895;41.950;24.372;2022-11-20T00:36:00;5.50;;;1.77;;
11677;SDS011;5895;41.950;24.372;2022-11-20T00:38:28;4.18;;;1.80;;
11677;SDS011;5895;41.950;24.372;2022-11-20T00:40:56;7.65;;;1.98;;
11677;SDS011;5895;41.950;24.372;2022-11-20T00:43:24;3.70;;;1.58;;
11677;SDS011;5895;41.950;24.372;2022-11-20T00:45:56;4.30;;;1.77;;
11677;SDS011;5895;41.950;24.372;2022-11-20T00:48:26;4.45;;;1.40;;
11677;SDS011;5895;41.950;24.372;2022-11-20T00:50:54;3.72;;;1.90;;
11677;SDS011;5895;41.950;24.372;2022-11-20T00:53:21;8.60;;;1.77;;
11677;SDS011;5895;41.950;24.372;2022-11-20T00:55:52;4.88;;;1.80;;
11677;SDS011;5895;41.950;24.372;2022-11-20T00:58:21;2.53;;;1.75;;
11677;SDS011;5895;41.950;24.372;2022-11-20T01:00:49;4.53;;;1.90;;
11677;SDS011;5895;41.950;24.372;2022-11-20T01:03:16;5.20;;;1.83;;
11677;SDS011;5895;41.950;24.372;2022-11-20T01:05:46;3.47;;;1.70;;
11677;SDS011;5895;41.950;24.372;2022-11-20T01:08:13;3.60;;;1.80;;
11677;SDS011;5895;41.950;24.372;2022-11-20T01:10:41;5.53;;;2.03;;
11677;SDS011;5895;41.950;24.372;2022-11-20T01:13:08;5.13;;;1.70;;
11677;SDS011;5895;41.950;24.372;2022-11-20T01:15:53;2.72;;;1.55;;
11677;SDS011;5895;41.950;24.372;2022-11-20T01:18:20;6.07;;;2.22;;
11677;SDS011;5895;41.950;24.372;2022-11-20T01:20:49;2.25;;;1.65;;
11677;SDS011;5895;41.950;24.372;2022-11-20T01:23:17;3.72;;;1.70;;
11677;SDS011;5895;41.950;24.372;2022-11-20T01:25:44;3.70;;;1.70;;
11677;SDS011;5895;41.950;24.372;2022-11-20T01:28:12;6.00;;;2.10;;
11677;SDS011;5895;41.950;24.372;2022-11-20T01:30:39;3.33;;;1.70;;
11677;SDS011;5895;41.950;24.372;2022-11-20T01:33:07;3.25;;;1.50;;
11677;SDS011;5895;41.950;24.372;2022-11-20T01:35:34;3.63;;;1.60;;
11677;SDS011;5895;41.950;24.372;2022-11-20T01:38:03;2.72;;;1.70;;
11677;SDS011;5895;41.950;24.372;2022-11-20T01:40:30;2.90;;;1.63;;
11677;SDS011;5895;41.950;24.372;2022-11-20T01:43:01;4.25;;;1.85;;
11677;SDS011;5895;41.950;24.372;2022-11-20T01:48:42;3.80;;;1.80;;
11677;SDS011;5895;41.950;24.372;2022-11-20T01:51:16;3.95;;;1.83;;
11677;SDS011;5895;41.950;24.372;2022-11-20T01:53:49;4.63;;;1.75;;
11677;SDS011;5895;41.950;24.372;2022-11-20T01:56:22;4.63;;;1.38;;
11677;SDS011;5895;41.950;24.372;2022-11-20T01:58:51;3.90;;;1.50;;
11677;SDS011;5895;41.950;24.372;2022-11-20T02:01:21;3.83;;;1.80;;
11677;SDS011;5895;41.950;24.372;2022-11-20T02:03:49;3.20;;;1.45;;
11677;SDS011;5895;41.950;24.372;2022-11-20T02:06:19;4.40;;;2.00;;
11677;SDS011;5895;41.950;24.372;2022-11-20T02:08:52;3.28;;;1.67;;
11677;SDS011;5895;41.950;24.372;2022-11-20T02:11:20;2.63;;;1.52;;
11677;SDS011;5895;41.950;24.372;2022-11-20T02:13:48;6.75;;;2.08;;
11677;SDS011;5895;41.950;24.372;2022-11-20T02:16:16;2.85;;;1.70;;
11677;SDS011;5895;41.950;24.372;2022-11-20T02:18:48;3.72;;;1.60;;
11677;SDS011;5895;41.950;24.372;2022-11-20T02:21:30;3.65;;;1.80;;
11677;SDS011;5895;41.950;24.372;2022-11-20T02:24:14;5.00;;;1.92;;
11677;SDS011;5895;41.950;24.372;2022-11-20T02:26:46;3.28;;;1.60;;
11677;SDS011;5895;41.950;24.372;2022-11-20T02:29:18;7.65;;;1.90;;
11677;SDS011;5895;41.950;24.372;2022-11-20T02:31:51;5.13;;;2.10;;
11677;SDS011;5895;41.950;24.372;2022-11-20T02:34:20;3.47;;;1.63;;
11677;SDS011;5895;41.950;24.372;2022-11-20T02:36:48;4.68;;;1.60;;
11677;SDS011;5895;41.950;24.372;2022-11-20T02:39:19;2.45;;;1.40;;
11677;SDS011;5895;41.950;24.372;2022-11-20T02:41:49;4.07;;;1.45;;
11677;SDS011;5895;41.950;24.372;2022-11-20T02:44:19;4.47;;;1.60;;
11677;SDS011;5895;41.950;24.372;2022-11-20T02:46:46;2.72;;;1.48;;
11677;SDS011;5895;41.950;24.372;2022-11-20T02:49:14;3.30;;;1.50;;
11677;SDS011;5895;41.950;24.372;2022-11-20T02:51:42;3.90;;;1.58;;
11677;SDS011;5895;41.950;24.372;2022-11-20T02:54:09;3.47;;;1.55;;
11677;SDS011;5895;41.950;24.372;2022-11-20T02:56:39;2.53;;;1.48;;
11677;SDS011;5895;41.950;24.372;2022-11-20T02:59:06;4.65;;;1.60;;
11677;SDS011;5895;41.950;24.372;2022-11-20T03:01:34;3.45;;;1.38;;
11677;SDS011;5895;41.950;24.372;2022-11-20T03:04:02;3.17;;;1.50;;
11677;SDS011;5895;41.950;24.372;2022-11-20T03:06:30;4.25;;;1.60;;
11677;SDS011;5895;41.950;24.372;2022-11-20T03:08:58;3.78;;;1.77;;
11677;SDS011;5895;41.950;24.372;2022-11-20T03:11:25;2.72;;;1.75;;
11677;SDS011;5895;41.950;24.372;2022-11-20T03:13:54;5.40;;;1.48;;
11677;SDS011;5895;41.950;24.372;2022-11-20T03:16:25;3.53;;;1.60;;
11677;SDS011;5895;41.950;24.372;2022-11-20T03:18:52;2.28;;;1.73;;
11677;SDS011;5895;41.950;24.372;2022-11-20T03:21:20;3.38;;;1.63;;
11677;SDS011;5895;41.950;24.372;2022-11-20T03:23:47;2.83;;;1.60;;
11677;SDS011;5895;41.950;24.372;2022-11-20T03:26:16;3.88;;;1.60;;
11677;SDS011;5895;41.950;24.372;2022-11-20T03:28:46;3.47;;;1.75;;
11677;SDS011;5895;41.950;24.372;2022-11-20T03:31:17;6.20;;;1.60;;
11677;SDS011;5895;41.950;24.372;2022-11-20T03:33:46;4.28;;;1.67;;
11677;SDS011;5895;41.950;24.372;2022-11-20T03:36:15;3.22;;;1.42;;
11677;SDS011;5895;41.950;24.372;2022-11-20T03:38:43;3.35;;;1.50;;
11677;SDS011;5895;41.950;24.372;2022-11-20T03:41:12;3.08;;;1.63;;
11677;SDS011;5895;41.950;24.372;2022-11-20T03:43:41;2.45;;;1.42;;
11677;SDS011;5895;41.950;24.372;2022-11-20T03:46:08;4.60;;;1.92;;
11677;SDS011;5895;41.950;24.372;2022-11-20T03:48:37;3.92;;;1.77;;
11677;SDS011;5895;41.950;24.372;2022-11-20T03:51:08;3.53;;;1.58;;
11677;SDS011;5895;41.950;24.372;2022-11-20T03:53:37;2.92;;;1.60;;
11677;SDS011;5895;41.950;24.372;2022-11-20T03:56:05;4.82;;;2.15;;
11677;SDS011;5895;41.950;24.372;2022-11-20T03:58:33;3.28;;;1.58;;
11677;SDS011;5895;41.950;24.372;2022-11-20T04:01:05;4.85;;;1.75;;
11677;SDS011;5895;41.950;24.372;2022-11-20T04:03:34;6.32;;;2.25;;
11677;SDS011;5895;41.950;24.372;2022-11-20T04:06:04;3.90;;;1.42;;
11677;SDS011;5895;41.950;24.372;2022-11-20T04:08:33;4.05;;;1.70;;
11677;SDS011;5895;41.950;24.372;2022-11-20T04:11:10;3.15;;;1.48;;
11677;SDS011;5895;41.950;24.372;2022-11-20T04:13:38;3.65;;;1.50;;
11677;SDS011;5895;41.950;24.372;2022-11-20T04:16:07;3.63;;;1.63;;
11677;SDS011;5895;41.950;24.372;2022-11-20T04:18:35;2.33;;;1.65;;
11677;SDS011;5895;41.950;24.372;2022-11-20T04:21:05;4.03;;;1.70;;
11677;SDS011;5895;41.950;24.372;2022-11-20T04:23:33;3.97;;;1.90;;
11677;SDS011;5895;41.950;24.372;2022-11-20T04:26:01;4.70;;;1.92;;
11677;SDS011;5895;41.950;24.372;2022-11-20T04:28:29;3.55;;;1.60;;
11677;SDS011;5895;41.950;24.372;2022-11-20T04:31:03;2.53;;;1.60;;
11677;SDS011;5895;41.950;24.372;2022-11-20T04:33:32;2.67;;;1.50;;
11677;SDS011;5895;41.950;24.372;2022-11-20T04:36:01;4.63;;;1.55;;
11677;SDS011;5895;41.950;24.372;2022-11-20T04:38:31;4.55;;;1.52;;
11677;SDS011;5895;41.950;24.372;2022-11-20T04:40:59;3.42;;;1.70;;
11677;SDS011;5895;41.950;24.372;2022-11-20T04:43:27;3.25;;;1.63;;
11677;SDS011;5895;41.950;24.372;2022-11-20T04:45:56;3.20;;;1.48;;
11677;SDS011;5895;41.950;24.372;2022-11-20T04:48:24;3.47;;;1.60;;
11677;SDS011;5895;41.950;24.372;2022-11-20T04:50:53;3.47;;;1.55;;
11677;SDS011;5895;41.950;24.372;2022-11-20T04:53:21;3.35;;;1.60;;
11677;SDS011;5895;41.950;24.372;2022-11-20T04:55:50;4.05;;;1.60;;
11677;SDS011;5895;41.950;24.372;2022-11-20T04:58:18;3.50;;;1.50;;
11677;SDS011;5895;41.950;24.372;2022-11-20T05:00:45;4.38;;;1.60;;
11677;SDS011;5895;41.950;24.372;2022-11-20T05:03:12;3.33;;;1.33;;
11677;SDS011;5895;41.950;24.372;2022-11-20T05:05:40;3.22;;;1.48;;
11677;SDS011;5895;41.950;24.372;2022-11-20T05:08:07;2.85;;;1.38;;
11677;SDS011;5895;41.950;24.372;2022-11-20T05:10:35;4.43;;;1.70;;
11677;SDS011;5895;41.950;24.372;2022-11-20T05:13:04;6.28;;;1.80;;
11677;SDS011;5895;41.950;24.372;2022-11-20T05:15:32;5.07;;;1.40;;
11677;SDS011;5895;41.950;24.372;2022-11-20T05:17:59;7.13;;;1.77;;
11677;SDS011;5895;41.950;24.372;2022-11-20T05:20:27;2.40;;;1.27;;
11677;SDS011;5895;41.950;24.372;2022-11-20T05:22:56;4.95;;;1.73;;
11677;SDS011;5895;41.950;24.372;2022-11-20T05:25:23;4.47;;;1.75;;
11677;SDS011;5895;41.950;24.372;2022-11-20T05:27:51;3.40;;;1.70;;
11677;SDS011;5895;41.950;24.372;2022-11-20T05:30:20;4.70;;;1.65;;
11677;SDS011;5895;41.950;24.372;2022-11-20T05:32:47;3.40;;;1.42;;
11677;SDS011;5895;41.950;24.372;2022-11-20T05:35:14;2.10;;;1.40;;
11677;SDS011;5895;41.950;24.372;2022-11-20T05:37:42;2.00;;;1.58;;
11677;SDS011;5895;41.950;24.372;2022-11-20T05:40:10;3.60;;;1.80;;
11677;SDS011;5895;41.950;24.372;2022-11-20T05:42:38;3.90;;;1.92;;
11677;SDS011;5895;41.950;24.372;2022-11-20T05:45:09;2.42;;;1.48;;
11677;SDS011;5895;41.950;24.372;2022-11-20T05:47:38;5.57;;;1.70;;
11677;SDS011;5895;41.950;24.372;2022-11-20T05:50:05;5.25;;;1.90;;
11677;SDS011;5895;41.950;24.372;2022-11-20T05:52:33;5.60;;;1.80;;
11677;SDS011;5895;41.950;24.372;2022-11-20T05:55:01;5.20;;;1.80;;
11677;SDS011;5895;41.950;24.372;2022-11-20T05:57:28;2.00;;;1.58;;
11677;SDS011;5895;41.950;24.372;2022-11-20T05:59:57;4.38;;;2.10;;
11677;SDS011;5895;41.950;24.372;2022-11-20T06:02:24;5.55;;;1.83;;
11677;SDS011;5895;41.950;24.372;2022-11-20T06:04:54;2.85;;;1.70;;
11677;SDS011;5895;41.950;24.372;2022-11-20T06:07:21;4.15;;;1.88;;
11677;SDS011;5895;41.950;24.372;2022-11-20T06:09:49;3.42;;;1.70;;
11677;SDS011;5895;41.950;24.372;2022-11-20T06:12:16;5.00;;;2.00;;
11677;SDS011;5895;41.950;24.372;2022-11-20T06:14:46;3.67;;;1.73;;
11677;SDS011;5895;41.950;24.372;2022-11-20T06:17:14;5.28;;;2.58;;
11677;SDS011;5895;41.950;24.372;2022-11-20T06:19:41;2.42;;;1.65;;
11677;SDS011;5895;41.950;24.372;2022-11-20T06:22:10;4.97;;;2.10;;
11677;SDS011;5895;41.950;24.372;2022-11-20T06:24:38;7.05;;;2.17;;
11677;SDS011;5895;41.950;24.372;2022-11-20T06:27:05;5.95;;;2.33;;
11677;SDS011;5895;41.950;24.372;2022-11-20T06:29:33;5.25;;;1.52;;
11677;SDS011;5895;41.950;24.372;2022-11-20T06:32:00;4.03;;;1.63;;
11677;SDS011;5895;41.950;24.372;2022-11-20T06:34:27;3.45;;;1.50;;
11677;SDS011;5895;41.950;24.372;2022-11-20T06:36:55;1.95;;;1.60;;
11677;SDS011;5895;41.950;24.372;2022-11-20T06:39:24;5.32;;;1.70;;
11677;SDS011;5895;41.950;24.372;2022-11-20T06:41:51;2.78;;;1.83;;
11677;SDS011;5895;41.950;24.372;2022-11-20T06:44:19;6.68;;;1.88;;
11677;SDS011;5895;41.950;24.372;2022-11-20T06:46:46;6.45;;;1.95;;
11677;SDS011;5895;41.950;24.372;2022-11-20T06:49:14;7.32;;;1.98;;
11677;SDS011;5895;41.950;24.372;2022-11-20T06:51:41;4.25;;;1.50;;
11677;SDS011;5895;41.950;24.372;2022-11-20T06:54:08;3.75;;;1.90;;
11677;SDS011;5895;41.950;24.372;2022-11-20T06:56:37;5.28;;;1.88;;
11677;SDS011;5895;41.950;24.372;2022-11-20T06:59:05;6.25;;;2.25;;
11677;SDS011;5895;41.950;24.372;2022-11-20T07:01:33;7.78;;;2.03;;
11677;SDS011;5895;41.950;24.372;2022-11-20T07:04:00;7.53;;;1.85;;
11677;SDS011;5895;41.950;24.372;2022-11-20T07:06:28;6.25;;;2.10;;
11677;SDS011;5895;41.950;24.372;2022-11-20T07:08:55;5.20;;;1.80;;
11677;SDS011;5895;41.950;24.372;2022-11-20T07:11:23;6.45;;;1.85;;
11677;SDS011;5895;41.950;24.372;2022-11-20T07:13:52;5.93;;;1.90;;
11677;SDS011;5895;41.950;24.372;2022-11-20T07:16:19;6.03;;;1.92;;
11677;SDS011;5895;41.950;24.372;2022-11-20T07:18:47;11.30;;;2.25;;
11677;SDS011;5895;41.950;24.372;2022-11-20T07:21:14;6.40;;;2.00;;
11677;SDS011;5895;41.950;24.372;2022-11-20T07:23:42;6.78;;;1.98;;
11677;SDS011;5895;41.950;24.372;2022-11-20T07:26:09;3.47;;;1.75;;
11677;SDS011;5895;41.950;24.372;2022-11-20T07:28:37;6.45;;;1.90;;
11677;SDS011;5895;41.950;24.372;2022-11-20T07:31:06;8.10;;;2.08;;
11677;SDS011;5895;41.950;24.372;2022-11-20T07:33:34;7.03;;;1.80;;
11677;SDS011;5895;41.950;24.372;2022-11-20T07:36:01;6.97;;;1.85;;
11677;SDS011;5895;41.950;24.372;2022-11-20T07:38:29;8.35;;;1.85;;
11677;SDS011;5895;41.950;24.372;2022-11-20T07:40:57;7.25;;;1.90;;
11677;SDS011;5895;41.950;24.372;2022-11-20T07:43:26;13.70;;;2.15;;
11677;SDS011;5895;41.950;24.372;2022-11-20T07:45:54;7.88;;;2.40;;
11677;SDS011;5895;41.950;24.372;2022-11-20T07:48:24;4.93;;;2.10;;
11677;SDS011;5895;41.950;24.372;2022-11-20T07:50:53;5.70;;;1.60;;
11677;SDS011;5895;41.950;24.372;2022-11-20T07:53:21;6.45;;;1.90;;
11677;SDS011;5895;41.950;24.372;2022-11-20T07:55:48;4.22;;;1.77;;
11677;SDS011;5895;41.950;24.372;2022-11-20T07:58:17;10.15;;;2.20;;
11677;SDS011;5895;41.950;24.372;2022-11-20T08:00:45;6.00;;;1.90;;
11677;SDS011;5895;41.950;24.372;2022-11-20T08:03:13;8.38;;;2.22;;
11677;SDS011;5895;41.950;24.372;2022-11-20T08:05:42;8.85;;;2.03;;
11677;SDS011;5895;41.950;24.372;2022-11-20T08:08:09;7.75;;;2.25;;
11677;SDS011;5895;41.950;24.372;2022-11-20T08:10:37;6.75;;;2.00;;
11677;SDS011;5895;41.950;24.372;2022-11-20T08:13:04;6.63;;;2.00;;
11677;SDS011;5895;41.950;24.372;2022-11-20T08:15:49;5.88;;;1.95;;
11677;SDS011;5895;41.950;24.372;2022-11-20T08:18:17;7.70;;;2.33;;
11677;SDS011;5895;41.950;24.372;2022-11-20T08:20:46;8.68;;;2.47;;
11677;SDS011;5895;41.950;24.372;2022-11-20T08:23:13;8.13;;;2.10;;
11677;SDS011;5895;41.950;24.372;2022-11-20T08:25:41;6.22;;;2.33;;
11677;SDS011;5895;41.950;24.372;2022-11-20T08:28:09;10.07;;;2.10;;
11677;SDS011;5895;41.950;24.372;2022-11-20T08:30:36;8.50;;;2.30;;
11677;SDS011;5895;41.950;24.372;2022-11-20T08:33:05;7.88;;;2.30;;
11677;SDS011;5895;41.950;24.372;2022-11-20T08:35:33;6.32;;;2.10;;
11677;SDS011;5895;41.950;24.372;2022-11-20T08:38:03;10.82;;;2.53;;
11677;SDS011;5895;41.950;24.372;2022-11-20T08:40:31;9.13;;;2.28;;
11677;SDS011;5895;41.950;24.372;2022-11-20T08:42:59;13.75;;;2.42;;
11677;SDS011;5895;41.950;24.372;2022-11-20T08:45:26;10.07;;;2.63;;
11677;SDS011;5895;41.950;24.372;2022-11-20T08:47:59;10.25;;;2.83;;
11677;SDS011;5895;41.950;24.372;2022-11-20T08:50:27;9.88;;;2.28;;
11677;SDS011;5895;41.950;24.372;2022-11-20T08:53:03;8.70;;;2.47;;
11677;SDS011;5895;41.950;24.372;2022-11-20T08:55:30;12.63;;;2.63;;
11677;SDS011;5895;41.950;24.372;2022-11-20T08:57:58;10.55;;;2.20;;
11677;SDS011;5895;41.950;24.372;2022-11-20T09:00:29;8.75;;;2.28;;
11677;SDS011;5895;41.950;24.372;2022-11-20T09:02:57;9.82;;;2.42;;
11677;SDS011;5895;41.950;24.372;2022-11-20T09:05:26;14.02;;;3.10;;
11677;SDS011;5895;41.950;24.372;2022-11-20T09:07:55;7.57;;;2.22;;
11677;SDS011;5895;41.950;24.372;2022-11-20T09:10:24;12.25;;;2.47;;
11677;SDS011;5895;41.950;24.372;2022-11-20T09:12:52;10.23;;;2.85;;
11677;SDS011;5895;41.950;24.372;2022-11-20T09:15:20;8.27;;;2.40;;
11677;SDS011;5895;41.950;24.372;2022-11-20T09:17:50;11.35;;;2.60;;
11677;SDS011;5895;41.950;24.372;2022-11-20T09:20:18;11.35;;;2.40;;
11677;SDS011;5895;41.950;24.372;2022-11-20T09:22:46;10.07;;;3.00;;
11677;SDS011;5895;41.950;24.372;2022-11-20T09:25:13;8.98;;;2.35;;
11677;SDS011;5895;41.950;24.372;2022-11-20T09:27:42;9.63;;;2.53;;
11677;SDS011;5895;41.950;24.372;2022-11-20T09:30:11;14.57;;;2.60;;
11677;SDS011;5895;41.950;24.372;2022-11-20T09:32:40;10.32;;;2.10;;
11677;SDS011;5895;41.950;24.372;2022-11-20T09:35:08;16.48;;;2.28;;
11677;SDS011;5895;41.950;24.372;2022-11-20T09:37:36;18.70;;;2.95;;
11677;SDS011;5895;41.950;24.372;2022-11-20T09:40:04;16.95;;;2.97;;
11677;SDS011;5895;41.950;24.372;2022-11-20T09:42:33;13.55;;;2.83;;
11677;SDS011;5895;41.950;24.372;2022-11-20T09:45:15;14.02;;;2.72;;
11677;SDS011;5895;41.950;24.372;2022-11-20T09:47:55;18.20;;;3.05;;
11677;SDS011;5895;41.950;24.372;2022-11-20T09:50:33;15.63;;;3.17;;
11677;SDS011;5895;41.950;24.372;2022-11-20T09:53:10;11.48;;;2.53;;
11677;SDS011;5895;41.950;24.372;2022-11-20T09:55:43;15.43;;;2.85;;
11677;SDS011;5895;41.950;24.372;2022-11-20T09:58:14;14.07;;;3.83;;
11677;SDS011;5895;41.950;24.372;2022-11-20T10:00:52;15.95;;;3.00;;
11677;SDS011;5895;41.950;24.372;2022-11-20T10:03:33;16.10;;;3.25;;
11677;SDS011;5895;41.950;24.372;2022-11-20T10:06:08;12.13;;;2.67;;
11677;SDS011;5895;41.950;24.372;2022-11-20T10:08:41;16.58;;;3.60;;
11677;SDS011;5895;41.950;24.372;2022-11-20T10:11:13;14.45;;;2.80;;
11677;SDS011;5895;41.950;24.372;2022-11-20T10:13:51;16.00;;;3.03;;
11677;SDS011;5895;41.950;24.372;2022-11-20T10:16:30;13.68;;;2.83;;
11677;SDS011;5895;41.950;24.372;2022-11-20T10:19:06;14.63;;;2.92;;
11677;SDS011;5895;41.950;24.372;2022-11-20T10:21:54;20.35;;;2.85;;
11677;SDS011;5895;41.950;24.372;2022-11-20T10:24:42;7.60;;;2.88;;
11677;SDS011;5895;41.950;24.372;2022-11-20T10:27:21;9.50;;;3.03;;
11677;SDS011;5895;41.950;24.372;2022-11-20T10:30:08;7.75;;;2.53;;
11677;SDS011;5895;41.950;24.372;2022-11-20T10:32:40;12.02;;;3.58;;
11677;SDS011;5895;41.950;24.372;2022-11-20T10:46:44;21.92;;;3.58;;
11677;SDS011;5895;41.950;24.372;2022-11-20T10:49:12;16.90;;;3.47;;
11677;SDS011;5895;41.950;24.372;2022-11-20T10:51:44;12.60;;;3.00;;
11677;SDS011;5895;41.950;24.372;2022-11-20T10:54:28;25.45;;;3.25;;
11677;SDS011;5895;41.950;24.372;2022-11-20T10:57:05;21.40;;;3.65;;
11677;SDS011;5895;41.950;24.372;2022-11-20T10:59:46;17.02;;;3.67;;
11677;SDS011;5895;41.950;24.372;2022-11-20T11:02:34;24.42;;;3.80;;
11677;SDS011;5895;41.950;24.372;2022-11-20T11:05:10;18.27;;;3.78;;
11677;SDS011;5895;41.950;24.372;2022-11-20T11:07:44;14.00;;;3.25;;
11677;SDS011;5895;41.950;24.372;2022-11-20T11:10:14;14.32;;;3.20;;
11677;SDS011;5895;41.950;24.372;2022-11-20T11:12:45;15.27;;;3.00;;
11677;SDS011;5895;41.950;24.372;2022-11-20T11:15:14;16.55;;;3.42;;
11677;SDS011;5895;41.950;24.372;2022-11-20T11:17:53;7.13;;;2.55;;
11677;SDS011;5895;41.950;24.372;2022-11-20T11:20:21;13.65;;;3.00;;
11677;SDS011;5895;41.950;24.372;2022-11-20T11:22:50;15.90;;;2.40;;
11677;SDS011;5895;41.950;24.372;2022-11-20T11:25:22;10.10;;;2.70;;
11677;SDS011;5895;41.950;24.372;2022-11-20T11:27:52;14.68;;;2.50;;
11677;SDS011;5895;41.950;24.372;2022-11-20T11:30:22;10.60;;;3.03;;
11677;SDS011;5895;41.950;24.372;2022-11-20T11:32:50;13.00;;;3.20;;
11677;SDS011;5895;41.950;24.372;2022-11-20T11:35:20;18.60;;;3.38;;
11677;SDS011;5895;41.950;24.372;2022-11-20T11:37:49;15.23;;;3.30;;
11677;SDS011;5895;41.950;24.372;2022-11-20T11:40:19;14.40;;;2.97;;
11677;SDS011;5895;41.950;24.372;2022-11-20T11:42:50;13.25;;;2.58;;
11677;SDS011;5895;41.950;24.372;2022-11-20T11:45:21;17.85;;;3.60;;
11677;SDS011;5895;41.950;24.372;2022-11-20T11:47:47;13.00;;;3.25;;
11677;SDS011;5895;41.950;24.372;2022-11-20T11:50:18;19.02;;;3.63;;
11677;SDS011;5895;41.950;24.372;2022-11-20T11:52:51;9.88;;;2.65;;
11677;SDS011;5895;41.950;24.372;2022-11-20T11:55:30;11.10;;;3.33;;
11677;SDS011;5895;41.950;24.372;2022-11-20T11:58:12;12.88;;;3.13;;
11677;SDS011;5895;41.950;24.372;2022-11-20T12:00:47;11.77;;;3.42;;
11677;SDS011;5895;41.950;24.372;2022-11-20T12:03:21;13.48;;;2.85;;
11677;SDS011;5895;41.950;24.372;2022-11-20T12:05:56;20.23;;;3.35;;
11677;SDS011;5895;41.950;24.372;2022-11-20T12:08:27;14.32;;;3.20;;
11677;SDS011;5895;41.950;24.372;2022-11-20T12:10:59;11.55;;;3.00;;
11677;SDS011;5895;41.950;24.372;2022-11-20T12:16:20;17.63;;;3.10;;
11677;SDS011;5895;41.950;24.372;2022-11-20T12:18:48;14.88;;;3.10;;
11677;SDS011;5895;41.950;24.372;2022-11-20T12:21:28;10.95;;;2.83;;
11677;SDS011;5895;41.950;24.372;2022-11-20T12:24:20;12.32;;;2.58;;
11677;SDS011;5895;41.950;24.372;2022-11-20T12:27:04;11.23;;;2.78;;
11677;SDS011;5895;41.950;24.372;2022-11-20T12:29:48;12.02;;;3.10;;
11677;SDS011;5895;41.950;24.372;2022-11-20T12:32:37;14.23;;;3.08;;
11677;SDS011;5895;41.950;24.372;2022-11-20T12:35:35;13.43;;;3.20;;
11677;SDS011;5895;41.950;24.372;2022-11-20T12:41:06;14.65;;;2.97;;
11677;SDS011;5895;41.950;24.372;2022-11-20T12:44:01;13.43;;;3.38;;
11677;SDS011;5895;41.950;24.372;2022-11-20T12:46:56;10.20;;;2.88;;
11677;SDS011;5895;41.950;24.372;2022-11-20T12:49:38;15.05;;;3.25;;
11677;SDS011;5895;41.950;24.372;2022-11-20T12:52:20;13.68;;;3.13;;
11677;SDS011;5895;41.950;24.372;2022-11-20T12:55:07;15.00;;;3.58;;
11677;SDS011;5895;41.950;24.372;2022-11-20T12:57:42;6.55;;;2.10;;
11677;SDS011;5895;41.950;24.372;2022-11-20T13:00:16;7.95;;;2.28;;
11677;SDS011;5895;41.950;24.372;2022-11-20T13:05:52;11.32;;;2.40;;
11677;SDS011;5895;41.950;24.372;2022-11-20T13:08:24;6.35;;;2.20;;
11677;SDS011;5895;41.950;24.372;2022-11-20T13:10:57;9.18;;;3.13;;
11677;SDS011;5895;41.950;24.372;2022-11-20T13:13:30;14.05;;;2.92;;
11677;SDS011;5895;41.950;24.372;2022-11-20T13:16:10;10.20;;;2.30;;
11677;SDS011;5895;41.950;24.372;2022-11-20T13:18:42;9.27;;;2.50;;
11677;SDS011;5895;41.950;24.372;2022-11-20T13:21:17;10.15;;;2.75;;
11677;SDS011;5895;41.950;24.372;2022-11-20T13:23:46;8.30;;;2.67;;
11677;SDS011;5895;41.950;24.372;2022-11-20T13:26:16;8.05;;;2.33;;
11677;SDS011;5895;41.950;24.372;2022-11-20T13:28:46;11.00;;;2.45;;
11677;SDS011;5895;41.950;24.372;2022-11-20T13:31:33;7.57;;;2.90;;
11677;SDS011;5895;41.950;24.372;2022-11-20T13:34:03;9.73;;;3.17;;
11677;SDS011;5895;41.950;24.372;2022-11-20T13:36:32;8.30;;;2.60;;
11677;SDS011;5895;41.950;24.372;2022-11-20T13:39:01;7.60;;;2.60;;
11677;SDS011;5895;41.950;24.372;2022-11-20T13:41:30;9.85;;;2.65;;
11677;SDS011;5895;41.950;24.372;2022-11-20T13:44:10;8.55;;;2.50;;
11677;SDS011;5895;41.950;24.372;2022-11-20T13:46:41;14.70;;;2.97;;
11677;SDS011;5895;41.950;24.372;2022-11-20T13:49:10;10.32;;;2.92;;
11677;SDS011;5895;41.950;24.372;2022-11-20T13:51:44;6.90;;;2.30;;
11677;SDS011;5895;41.950;24.372;2022-11-20T13:54:18;9.48;;;2.60;;
11677;SDS011;5895;41.950;24.372;2022-11-20T14:00:21;4.78;;;2.78;;
11677;SDS011;5895;41.950;24.372;2022-11-20T14:02:52;9.82;;;3.75;;
11677;SDS011;5895;41.950;24.372;2022-11-20T14:05:28;7.97;;;4.53;;
11677;SDS011;5895;41.950;24.372;2022-11-20T14:07:58;3.80;;;1.63;;
11677;SDS011;5895;41.950;24.372;2022-11-20T14:10:26;3.08;;;1.30;;
11677;SDS011;5895;41.950;24.372;2022-11-20T14:12:55;7.80;;;2.67;;
11677;SDS011;5895;41.950;24.372;2022-11-20T14:15:27;8.15;;;2.30;;
11677;SDS011;5895;41.950;24.372;2022-11-20T14:17:56;7.70;;;2.35;;
11677;SDS011;5895;41.950;24.372;2022-11-20T14:20:24;17.58;;;3.15;;
11677;SDS011;5895;41.950;24.372;2022-11-20T14:22:54;12.32;;;2.70;;
11677;SDS011;5895;41.950;24.372;2022-11-20T14:25:22;9.77;;;2.65;;
11677;SDS011;5895;41.950;24.372;2022-11-20T14:27:52;5.22;;;2.15;;
11677;SDS011;5895;41.950;24.372;2022-11-20T14:30:23;11.25;;;2.85;;
11677;SDS011;5895;41.950;24.372;2022-11-20T14:32:53;11.63;;;2.70;;
11677;SDS011;5895;41.950;24.372;2022-11-20T14:35:23;7.53;;;2.50;;
11677;SDS011;5895;41.950;24.372;2022-11-20T14:37:52;9.75;;;2.25;;
11677;SDS011;5895;41.950;24.372;2022-11-20T14:40:24;11.57;;;3.38;;
11677;SDS011;5895;41.950;24.372;2022-11-20T14:42:54;8.73;;;2.70;;
11677;SDS011;5895;41.950;24.372;2022-11-20T14:45:23;6.57;;;2.60;;
11677;SDS011;5895;41.950;24.372;2022-11-20T14:47:51;10.32;;;2.22;;
11677;SDS011;5895;41.950;24.372;2022-11-20T14:50:21;12.63;;;3.60;;
11677;SDS011;5895;41.950;24.372;2022-11-20T14:52:51;10.52;;;2.78;;
11677;SDS011;5895;41.950;24.372;2022-11-20T14:55:25;12.27;;;2.65;;
11677;SDS011;5895;41.950;24.372;2022-11-20T14:57:55;11.10;;;3.22;;
11677;SDS011;5895;41.950;24.372;2022-11-20T15:00:24;10.32;;;2.60;;
11677;SDS011;5895;41.950;24.372;2022-11-20T15:02:52;9.95;;;2.30;;
11677;SDS011;5895;41.950;24.372;2022-11-20T15:05:21;9.05;;;2.15;;
11677;SDS011;5895;41.950;24.372;2022-11-20T15:07:50;7.97;;;2.65;;
11677;SDS011;5895;41.950;24.372;2022-11-20T15:10:30;9.00;;;2.60;;
11677;SDS011;5895;41.950;24.372;2022-11-20T15:12:59;10.02;;;2.63;;
11677;SDS011;5895;41.950;24.372;2022-11-20T15:15:30;9.90;;;2.53;;
11677;SDS011;5895;41.950;24.372;2022-11-20T15:18:01;7.78;;;2.28;;
11677;SDS011;5895;41.950;24.372;2022-11-20T15:20:30;7.15;;;2.10;;
11677;SDS011;5895;41.950;24.372;2022-11-20T15:22:58;7.35;;;2.30;;
11677;SDS011;5895;41.950;24.372;2022-11-20T15:25:26;9.88;;;2.38;;
11677;SDS011;5895;41.950;24.372;2022-11-20T15:27:54;7.07;;;2.25;;
11677;SDS011;5895;41.950;24.372;2022-11-20T15:30:22;6.65;;;1.80;;